createdAt,value
2022-09-17T00:01:48.220Z,98448.33
2022-09-17T00:04:50.215Z,98443.87
2022-09-17T00:07:52.352Z,98439.63
2022-09-17T00:10:54.221Z,98437.15
2022-09-17T00:13:58.716Z,98422.76
2022-09-17T00:17:02.047Z,98417.74
2022-09-17T00:20:05.467Z,98421.70
2022-09-17T00:23:08.238Z,98423.45
2022-09-17T00:26:10.073Z,98428.52
2022-09-17T00:29:12.126Z,98433.48
2022-09-17T00:32:13.918Z,98438.34
2022-09-17T00:35:15.865Z,98441.25
2022-09-17T00:38:17.594Z,98447.04
2022-09-17T00:41:20.592Z,98445.54
2022-09-17T00:44:42.882Z,98454.70
2022-09-17T00:48:01.137Z,98462.21
2022-09-17T00:51:04.563Z,98458.85
2022-09-17T00:54:08.430Z,98452.45
2022-09-17T00:57:10.330Z,98452.08
2022-09-17T01:00:14.915Z,98446.02
2022-09-17T01:03:17.338Z,98442.66
2022-09-17T01:06:54.125Z,98440.45
2022-09-17T01:10:01.397Z,98435.13
2022-09-17T01:13:18.518Z,98430.19
2022-09-17T01:16:42.463Z,98425.35
2022-09-17T01:20:17.861Z,98422.99
2022-09-17T01:23:30.714Z,98423.23
2022-09-17T01:27:03.649Z,98426.41
2022-09-17T01:30:32.662Z,98425.69
2022-09-17T01:33:38.301Z,98428.21
2022-09-17T01:37:04.145Z,98425.08
2022-09-17T01:40:20.259Z,98430.90
2022-09-17T01:43:30.537Z,98427.63
2022-09-17T01:46:37.095Z,98427.27
2022-09-17T01:49:40.294Z,98427.86
2022-09-17T01:52:44.689Z,98431.42
2022-09-17T01:55:46.841Z,98431.61
2022-09-17T01:58:53.882Z,98427.05
2022-09-17T02:02:02.162Z,98425.52
2022-09-17T02:05:16.974Z,98428.29
2022-09-17T02:08:24.396Z,98432.16
2022-09-17T02:11:26.335Z,98439.20
2022-09-17T02:14:33.706Z,98434.80
2022-09-17T02:17:40.529Z,98436.92
2022-09-17T02:20:46.786Z,98433.13
2022-09-17T02:24:04.226Z,98433.89
2022-09-17T02:27:32.741Z,98437.52
2022-09-17T02:30:34.679Z,98437.38
2022-09-17T02:33:38.231Z,98441.16
2022-09-17T02:36:40.300Z,98443.52
2022-09-17T02:39:42.617Z,98450.43
2022-09-17T02:43:06.458Z,98452.08
2022-09-17T02:46:37.457Z,98447.73
2022-09-17T02:49:50.257Z,98442.27
2022-09-17T02:53:02.137Z,98437.70
2022-09-17T02:56:27.259Z,98432.41
2022-09-17T02:59:56.059Z,98429.05
2022-09-17T03:03:01.158Z,98423.84
2022-09-17T03:06:03.066Z,98422.42
2022-09-17T03:09:04.861Z,98416.77
2022-09-17T03:12:06.813Z,98417.69
2022-09-17T03:15:09.098Z,98418.66
2022-09-17T03:18:10.986Z,98417.75
2022-09-17T03:21:12.856Z,98412.36
2022-09-17T03:24:14.655Z,98407.20
2022-09-17T03:27:16.519Z,98407.95
2022-09-17T03:30:19.051Z,98402.73
2022-09-17T03:33:21.081Z,98402.48
2022-09-17T03:36:22.875Z,98399.98
2022-09-17T03:39:24.718Z,98402.53
2022-09-17T03:42:26.565Z,98400.36
2022-09-17T03:45:28.333Z,98399.46
2022-09-17T03:48:30.548Z,98395.49
2022-09-17T03:51:32.699Z,98394.42
2022-09-17T03:54:34.479Z,98396.67
2022-09-17T03:57:36.339Z,98397.54
2022-09-17T04:00:38.274Z,98392.13
2022-09-17T04:03:40.130Z,98389.23
2022-09-17T04:06:41.894Z,98384.96
2022-09-17T04:09:43.790Z,98383.23
2022-09-17T04:12:45.707Z,98379.73
2022-09-17T04:15:48.148Z,98375.52
2022-09-17T04:18:49.959Z,98374.58
2022-09-17T04:21:53.118Z,98369.44
2022-09-17T04:24:55.154Z,98367.84
2022-09-17T04:27:56.926Z,98369.06
2022-09-17T04:30:58.969Z,98371.29
2022-09-17T04:34:00.745Z,98367.23
2022-09-17T04:37:03.827Z,98373.20
2022-09-17T04:40:08.040Z,98379.73
2022-09-17T04:43:11.058Z,98382.05
2022-09-17T04:46:14.372Z,98387.63
2022-09-17T04:49:16.273Z,98386.17
2022-09-17T04:52:18.304Z,98390.24
2022-09-17T04:55:20.233Z,98390.70
2022-09-17T04:58:22.111Z,98387.89
2022-09-17T05:01:23.976Z,98389.77
2022-09-17T05:04:25.958Z,98386.71
2022-09-17T05:07:27.830Z,98384.36
2022-09-17T05:10:29.609Z,98381.02
2022-09-17T05:13:31.376Z,98379.81
2022-09-17T05:16:33.565Z,98378.55
2022-09-17T05:19:35.469Z,98379.59
2022-09-17T05:22:41.993Z,98382.54
2022-09-17T05:25:44.062Z,98389.64
2022-09-17T05:28:45.918Z,98392.14
2022-09-17T05:31:47.827Z,98394.56
2022-09-17T05:34:50.319Z,98390.04
2022-09-17T05:37:52.145Z,98387.99
2022-09-17T05:40:53.950Z,98384.77
2022-09-17T05:43:55.693Z,98378.45
2022-09-17T05:46:57.547Z,98381.19
2022-09-17T05:49:59.862Z,98374.66
2022-09-17T05:53:06.279Z,98365.85
2022-09-17T05:56:08.293Z,98373.21
2022-09-17T05:59:10.143Z,98377.90
2022-09-17T06:02:14.948Z,98397.58
2022-09-17T06:05:17.484Z,98402.98
2022-09-17T06:08:19.264Z,98395.22
2022-09-17T06:11:21.099Z,98388.96
2022-09-17T06:14:22.793Z,98402.32
2022-09-17T06:17:24.491Z,98402.84
2022-09-17T06:20:26.318Z,98396.14
2022-09-17T06:23:31.484Z,98390.38
2022-09-17T06:26:33.355Z,98387.80
2022-09-17T06:29:35.115Z,98384.94
2022-09-17T06:32:36.875Z,98384.11
2022-09-17T06:35:38.625Z,98392.48
2022-09-17T06:38:40.572Z,98382.57
2022-09-17T06:41:43.436Z,98378.98
2022-09-17T06:44:45.226Z,98389.02
2022-09-17T06:47:46.963Z,98393.73
2022-09-17T06:50:49.223Z,98395.02
2022-09-17T06:53:51.087Z,98393.94
2022-09-17T06:56:52.809Z,98387.10
2022-09-17T06:59:54.762Z,98388.39
2022-09-17T07:02:58.249Z,98383.27
2022-09-17T07:06:00.214Z,98384.11
2022-09-17T07:09:02.863Z,98384.62
2022-09-17T07:12:08.395Z,98387.80
2022-09-17T07:15:11.558Z,98387.55
2022-09-17T07:18:13.430Z,98383.42
2022-09-17T07:21:15.124Z,98384.98
2022-09-17T07:24:16.956Z,98393.88
2022-09-17T07:27:18.763Z,98391.24
2022-09-17T07:30:21.047Z,98381.02
2022-09-17T07:33:25.619Z,98384.93
2022-09-17T07:36:27.946Z,98393.83
2022-09-17T07:39:29.690Z,98397.86
2022-09-17T07:42:33.149Z,98407.11
2022-09-17T07:45:35.035Z,98411.60
2022-09-17T07:48:36.918Z,98416.83
2022-09-17T07:51:40.441Z,98421.10
2022-09-17T07:54:42.642Z,98426.80
2022-09-17T07:57:44.520Z,98425.67
2022-09-17T08:00:46.440Z,98429.45
2022-09-17T08:03:53.021Z,98421.84
2022-09-17T08:06:54.859Z,98416.42
2022-09-17T08:09:57.066Z,98412.80
2022-09-17T08:12:59.204Z,98410.50
2022-09-17T08:16:02.569Z,98408.33
2022-09-17T08:19:04.322Z,98406.20
2022-09-17T08:22:06.098Z,98410.66
2022-09-17T08:25:09.170Z,98397.82
2022-09-17T08:28:11.441Z,98400.06
2022-09-17T08:31:14.327Z,98394.09
2022-09-17T08:34:16.511Z,98393.54
2022-09-17T08:37:18.267Z,98397.17
2022-09-17T08:40:22.579Z,98398.77
2022-09-17T08:43:25.717Z,98397.55
2022-09-17T08:46:28.985Z,98401.90
2022-09-17T08:49:37.431Z,98406.75
2022-09-17T08:52:54.916Z,98405.48
2022-09-17T08:56:11.319Z,98400.70
2022-09-17T08:59:28.414Z,98397.58
2022-09-17T09:02:44.101Z,98403.46
2022-09-17T09:05:52.650Z,98405.06
2022-09-17T09:09:04.031Z,98398.27
2022-09-17T09:12:26.957Z,98388.30
2022-09-17T09:15:33.092Z,98387.40
2022-09-17T09:18:37.915Z,98385.92
2022-09-17T09:21:45.683Z,98382.55
2022-09-17T09:25:13.288Z,98379.04
2022-09-17T09:28:23.322Z,98370.28
2022-09-17T09:31:39.872Z,98365.58
2022-09-17T09:34:41.850Z,98368.34
2022-09-17T09:37:50.727Z,98370.11
2022-09-17T09:41:00.937Z,98378.98
2022-09-17T09:44:10.672Z,98384.19
2022-09-17T09:47:27.196Z,98387.17
2022-09-17T09:51:01.722Z,98396.56
2022-09-17T09:54:37.146Z,98407.29
2022-09-17T09:57:47.718Z,98403.73
2022-09-17T10:00:49.579Z,98408.66
2022-09-17T10:03:52.845Z,98403.50
2022-09-17T10:07:20.789Z,98404.33
2022-09-17T10:10:23.094Z,98400.15
2022-09-17T10:13:25.301Z,98407.27
2022-09-17T10:16:29.489Z,98413.52
2022-09-17T10:19:31.363Z,98414.21
2022-09-17T10:22:44.910Z,98415.09
2022-09-17T10:25:47.698Z,98414.64
2022-09-17T10:29:11.695Z,98411.45
2022-09-17T10:32:18.198Z,98412.09
2022-09-17T10:35:19.966Z,98412.79
2022-09-17T10:38:37.031Z,98415.40
2022-09-17T10:41:56.679Z,98414.27
2022-09-17T10:45:01.021Z,98404.52
2022-09-17T10:48:02.952Z,98404.59
2022-09-17T10:51:06.873Z,98402.07
2022-09-17T10:54:14.786Z,98408.44
2022-09-17T10:57:36.622Z,98405.41
2022-09-17T11:01:09.526Z,98403.04
2022-09-17T11:04:25.056Z,98404.29
2022-09-17T11:07:47.264Z,98402.35
2022-09-17T11:10:59.939Z,98396.17
2022-09-17T11:14:41.563Z,98401.40
2022-09-17T11:18:04.890Z,98411.25
2022-09-17T11:21:14.449Z,98415.52
2022-09-17T11:24:26.034Z,98421.11
2022-09-17T11:27:48.738Z,98426.70
2022-09-17T11:31:24.229Z,98419.36
2022-09-17T11:34:53.954Z,98416.88
2022-09-17T11:38:11.199Z,98414.11
2022-09-17T11:41:14.600Z,98411.40
2022-09-17T11:44:33.357Z,98410.98
2022-09-17T11:47:39.314Z,98408.73
2022-09-17T11:50:46.814Z,98411.29
2022-09-17T11:54:03.730Z,98408.63
2022-09-17T11:57:35.761Z,98406.84
2022-09-17T12:00:43.261Z,98409.89
2022-09-17T12:04:01.875Z,98414.00
2022-09-17T12:07:30.295Z,98409.46
2022-09-17T12:10:35.091Z,98408.82
2022-09-17T12:13:42.994Z,98411.81
2022-09-17T12:16:46.864Z,98403.27
2022-09-17T12:19:55.494Z,98402.14
2022-09-17T12:22:58.754Z,98401.52
2022-09-17T12:26:34.139Z,98403.65
2022-09-17T12:29:48.083Z,98399.59
2022-09-17T12:33:08.190Z,98398.14
2022-09-17T12:36:27.825Z,98391.01
2022-09-17T12:39:47.512Z,98390.47
2022-09-17T12:43:02.742Z,98381.63
2022-09-17T12:46:32.918Z,98366.38
2022-09-17T12:49:43.931Z,98361.19
2022-09-17T12:52:45.612Z,98354.98
2022-09-17T12:55:47.395Z,98352.49
2022-09-17T12:59:10.635Z,98356.02
2022-09-17T13:02:20.024Z,98349.75
2022-09-17T13:05:50.625Z,98340.52
2022-09-17T13:09:10.991Z,98334.20
2022-09-17T13:12:39.737Z,98332.41
2022-09-17T13:16:13.383Z,98331.58
2022-09-17T13:19:33.480Z,98332.19
2022-09-17T13:22:45.441Z,98331.48
2022-09-17T13:25:53.782Z,98332.39
2022-09-17T13:28:55.736Z,98335.59
2022-09-17T13:31:57.737Z,98343.86
2022-09-17T13:35:11.598Z,98337.91
2022-09-17T13:38:13.492Z,98336.39
2022-09-17T13:41:21.498Z,98334.86
2022-09-17T13:44:23.980Z,98332.85
2022-09-17T13:47:31.609Z,98338.73
2022-09-17T13:50:42.694Z,98351.44
2022-09-17T13:53:52.771Z,98359.32
2022-09-17T13:57:24.082Z,98344.23
2022-09-17T14:01:00.940Z,98335.64
2022-09-17T14:04:03.226Z,98336.88
2022-09-17T14:07:24.566Z,98332.48
2022-09-17T14:10:34.351Z,98326.21
2022-09-17T14:13:36.079Z,98323.73
2022-09-17T14:16:45.870Z,98332.14
2022-09-17T14:19:51.894Z,98316.44
2022-09-17T14:23:03.266Z,98302.53
2022-09-17T14:26:09.126Z,98298.45
2022-09-17T14:29:48.819Z,98298.60
2022-09-17T14:33:17.660Z,98307.94
2022-09-17T14:36:21.134Z,98312.63
2022-09-17T14:39:27.895Z,98315.33
2022-09-17T14:42:35.243Z,98312.75
2022-09-17T14:45:41.535Z,98312.95
2022-09-17T14:48:43.401Z,98309.04
2022-09-17T14:51:45.419Z,98306.16
2022-09-17T14:54:47.161Z,98296.39
2022-09-17T14:57:52.602Z,98296.49
2022-09-17T15:00:54.452Z,98294.84
2022-09-17T15:04:14.506Z,98297.02
2022-09-17T15:07:16.320Z,98309.55
2022-09-17T15:10:21.235Z,98310.55
2022-09-17T15:13:28.489Z,98299.00
2022-09-17T15:16:30.838Z,98288.05
2022-09-17T15:19:42.108Z,98280.95
2022-09-17T15:22:46.210Z,98274.30
2022-09-17T15:25:51.505Z,98280.90
2022-09-17T15:28:54.362Z,98283.30
2022-09-17T15:31:56.282Z,98287.83
2022-09-17T15:35:17.342Z,98293.39
2022-09-17T15:38:26.917Z,98298.99
2022-09-17T15:41:29.105Z,98295.35
2022-09-17T15:44:31.848Z,98296.87
2022-09-17T15:47:37.017Z,98300.92
2022-09-17T15:50:53.992Z,98309.84
2022-09-17T15:54:05.251Z,98313.40
2022-09-17T15:57:14.358Z,98310.13
2022-09-17T16:00:17.232Z,98309.73
2022-09-17T16:03:40.701Z,98314.85
2022-09-17T16:06:49.078Z,98316.28
2022-09-17T16:09:52.419Z,98318.05
2022-09-17T16:12:54.311Z,98323.29
2022-09-17T16:15:56.380Z,98326.04
2022-09-17T16:18:58.345Z,98324.08
2022-09-17T16:22:00.110Z,98323.77
2022-09-17T16:25:02.038Z,98327.23
2022-09-17T16:28:09.374Z,98325.38
2022-09-17T16:31:13.589Z,98326.73
2022-09-17T16:34:15.394Z,98327.31
2022-09-17T16:37:17.246Z,98323.05
2022-09-17T16:40:20.020Z,98321.79
2022-09-17T16:43:22.186Z,98322.21
2022-09-17T16:46:24.049Z,98317.49
2022-09-17T16:49:25.918Z,98316.04
2022-09-17T16:52:27.693Z,98315.19
2022-09-17T16:55:29.769Z,98306.86
2022-09-17T16:58:31.658Z,98308.23
2022-09-17T17:01:33.465Z,98304.05
2022-09-17T17:04:35.343Z,98306.42
2022-09-17T17:07:37.322Z,98303.98
2022-09-17T17:10:39.373Z,98303.37
2022-09-17T17:13:44.847Z,98298.80
2022-09-17T17:16:46.677Z,98298.01
2022-09-17T17:19:48.474Z,98301.02
2022-09-17T17:22:53.080Z,98297.47
2022-09-17T17:25:54.852Z,98297.77
2022-09-17T17:28:56.741Z,98300.69
2022-09-17T17:31:58.626Z,98304.88
2022-09-17T17:35:00.498Z,98305.79
2022-09-17T17:38:02.303Z,98308.67
2022-09-17T17:41:06.868Z,98309.03
2022-09-17T17:44:12.833Z,98310.61
2022-09-17T17:47:14.786Z,98306.81
2022-09-17T17:50:16.929Z,98303.40
2022-09-17T17:53:18.788Z,98300.96
2022-09-17T17:56:20.756Z,98294.07
2022-09-17T17:59:22.765Z,98292.30
2022-09-17T18:02:24.705Z,98283.70
2022-09-17T18:05:26.799Z,98275.69
2022-09-17T18:08:28.514Z,98278.94
2022-09-17T18:11:30.579Z,98285.70
2022-09-17T18:14:32.379Z,98282.60
2022-09-17T18:17:36.458Z,98289.09
2022-09-17T18:20:38.237Z,98297.09
2022-09-17T18:23:41.620Z,98290.77
2022-09-17T18:26:43.629Z,98292.21
2022-09-17T18:29:45.519Z,98300.85
2022-09-17T18:32:50.278Z,98302.05
2022-09-17T18:35:57.065Z,98299.79
2022-09-17T18:42:27.467Z,98296.08
2022-09-17T18:45:29.347Z,98292.98
2022-09-17T18:48:36.199Z,98295.73
2022-09-17T18:51:38.742Z,98304.94
2022-09-17T18:54:40.707Z,98318.56
2022-09-17T18:57:42.634Z,98321.42
2022-09-17T19:00:45.507Z,98322.84
2022-09-17T19:03:47.519Z,98314.12
2022-09-17T19:06:49.482Z,98307.11
2022-09-17T19:09:51.230Z,98304.45
2022-09-17T19:12:54.263Z,98310.70
2022-09-17T19:15:59.743Z,98307.52
2022-09-17T19:19:01.730Z,98307.02
2022-09-17T19:22:03.860Z,98301.00
2022-09-17T19:25:06.269Z,98296.33
2022-09-17T19:28:08.571Z,98289.83
2022-09-17T19:31:12.920Z,98291.91
2022-09-17T19:34:14.898Z,98287.21
2022-09-17T19:37:18.329Z,98290.60
2022-09-17T19:40:20.492Z,98298.84
2022-09-17T19:43:22.296Z,98297.27
2022-09-17T19:46:25.594Z,98292.17
2022-09-17T19:49:27.403Z,98288.27
2022-09-17T19:52:29.155Z,98285.85
2022-09-17T19:55:31.061Z,98283.14
2022-09-17T19:58:32.738Z,98276.92
2022-09-17T20:01:35.337Z,98279.48
2022-09-17T20:04:37.280Z,98277.52
2022-09-17T20:07:39.155Z,98277.42
2022-09-17T20:10:40.937Z,98286.34
2022-09-17T20:13:43.055Z,98285.19
2022-09-17T20:16:45.276Z,98284.74
2022-09-17T20:19:46.998Z,98285.48
2022-09-17T20:22:51.710Z,98279.64
2022-09-17T20:25:54.110Z,98279.96
2022-09-17T20:28:56.493Z,98285.80
2022-09-17T20:31:58.218Z,98286.39
2022-09-17T20:35:00.148Z,98281.05
2022-09-17T20:39:06.569Z,98273.64
2022-09-17T20:41:24.926Z,98267.77
2022-09-17T20:44:26.802Z,98272.44
2022-09-17T20:47:28.580Z,98270.02
2022-09-17T20:50:30.354Z,98274.05
2022-09-17T20:53:34.075Z,98273.35
2022-09-17T20:56:36.100Z,98269.86
2022-09-17T21:00:04.117Z,98271.36
2022-09-17T21:03:05.971Z,98266.08
2022-09-17T21:06:07.930Z,98264.73
2022-09-17T21:09:12.477Z,98262.73
2022-09-17T21:12:14.234Z,98261.71
2022-09-17T21:15:16.055Z,98261.70
2022-09-17T21:18:17.819Z,98265.22
2022-09-17T21:21:19.817Z,98261.73
2022-09-17T21:24:21.798Z,98255.98
2022-09-17T21:27:23.623Z,98246.67
2022-09-17T21:30:25.894Z,98248.71
2022-09-17T21:33:27.706Z,98247.90
2022-09-17T21:36:32.219Z,98251.02
2022-09-17T21:39:35.786Z,98248.28
2022-09-17T21:42:38.957Z,98252.40
2022-09-17T21:45:40.899Z,98251.07
2022-09-17T21:48:47.847Z,98254.58
2022-09-17T21:51:49.835Z,98254.27
2022-09-17T21:54:51.748Z,98257.30
2022-09-17T21:57:53.476Z,98255.02
2022-09-17T22:00:55.199Z,98255.80
2022-09-17T22:03:57.933Z,98255.13
2022-09-17T22:07:00.669Z,98256.58
2022-09-17T22:10:02.480Z,98259.46
2022-09-17T22:13:04.751Z,98258.58
2022-09-17T22:16:09.145Z,98260.55
2022-09-17T22:19:13.875Z,98262.45
2022-09-17T22:22:15.715Z,98264.07
2022-09-17T22:25:17.531Z,98262.55
2022-09-17T22:28:21.636Z,98258.08
2022-09-17T22:31:23.845Z,98253.39
2022-09-17T22:34:26.642Z,98251.77
2022-09-17T22:37:29.207Z,98253.94
2022-09-17T22:40:31.068Z,98254.80
2022-09-17T22:43:33.186Z,98254.81
2022-09-17T22:46:39.521Z,98259.73
2022-09-17T22:49:41.623Z,98264.82
2022-09-17T22:52:43.318Z,98256.79
2022-09-17T22:55:54.866Z,98263.09
2022-09-17T22:58:57.993Z,98260.67
2022-09-17T23:01:59.786Z,98262.08
2022-09-17T23:05:21.411Z,98258.50
2022-09-17T23:08:38.033Z,98252.13
2022-09-17T23:11:40.159Z,98249.66
2022-09-17T23:14:41.930Z,98245.88
2022-09-17T23:17:43.823Z,98237.72
2022-09-17T23:21:10.534Z,98237.26
2022-09-17T23:24:18.215Z,98235.48
2022-09-17T23:27:20.091Z,98233.21
2022-09-17T23:30:24.264Z,98230.01
2022-09-17T23:33:26.191Z,98226.80
2022-09-17T23:36:30.129Z,98220.04
2022-09-17T23:39:32.137Z,98216.61
2022-09-17T23:42:37.066Z,98216.70
2022-09-17T23:45:38.906Z,98219.71
2022-09-17T23:48:41.242Z,98216.48
2022-09-17T23:51:43.175Z,98217.14
2022-09-17T23:54:45.144Z,98214.35
2022-09-17T23:57:47.136Z,98213.37
